createdAt,value
2023-05-20T00:03:36.740Z,102047.81
2023-05-20T00:08:44.872Z,102040.27
2023-05-20T00:13:52.849Z,102041.27
2023-05-20T00:19:00.923Z,102035.92
2023-05-20T00:24:09.467Z,102032.25
2023-05-20T00:29:17.516Z,102032.52
2023-05-20T00:34:25.515Z,102034.66
2023-05-20T00:39:33.818Z,102034.79
2023-05-20T00:44:41.866Z,102029.89
2023-05-20T00:49:52.545Z,102026.30
2023-05-20T00:55:01.167Z,102026.59
2023-05-20T01:00:18.017Z,102026.02
2023-05-20T01:05:26.017Z,102020.45
2023-05-20T01:10:35.374Z,102015.19
2023-05-20T01:15:48.341Z,102015.18
2023-05-20T01:21:01.885Z,102016.67
2023-05-20T01:26:13.921Z,102013.38
2023-05-20T01:31:25.936Z,102018.20
2023-05-20T01:36:35.172Z,102015.24
2023-05-20T01:41:44.167Z,102012.94
2023-05-20T01:46:53.437Z,102012.23
2023-05-20T01:52:01.888Z,102012.70
2023-05-20T01:57:10.282Z,102005.32
2023-05-20T02:02:18.446Z,102008.32
2023-05-20T02:07:26.579Z,102001.02
2023-05-20T02:12:34.717Z,101997.15
2023-05-20T02:17:43.832Z,101991.10
2023-05-20T02:22:51.893Z,101991.49
2023-05-20T02:27:59.905Z,101994.45
2023-05-20T02:33:09.955Z,101995.95
2023-05-20T02:38:18.090Z,101996.52
2023-05-20T02:43:26.138Z,101993.04
2023-05-20T02:48:34.126Z,101999.91
2023-05-20T02:53:42.184Z,102008.65
2023-05-20T02:58:50.325Z,102010.13
2023-05-20T03:03:58.468Z,102008.14
2023-05-20T03:09:06.564Z,102009.91
2023-05-20T03:14:14.610Z,102013.46
2023-05-20T03:19:22.758Z,102018.95
2023-05-20T03:24:32.375Z,102019.53
2023-05-20T03:29:40.402Z,102023.62
2023-05-20T03:34:48.403Z,102025.27
2023-05-20T03:39:56.495Z,102027.25
2023-05-20T03:45:04.796Z,102031.41
2023-05-20T03:50:13.441Z,102033.77
2023-05-20T03:55:21.425Z,102039.39
2023-05-20T04:00:31.561Z,102048.04
2023-05-20T04:05:39.856Z,102049.96
2023-05-20T04:10:48.046Z,102045.58
2023-05-20T04:15:56.090Z,102045.90
2023-05-20T04:21:04.713Z,102048.37
2023-05-20T04:26:12.946Z,102044.09
2023-05-20T04:31:21.370Z,102045.59
2023-05-20T04:36:29.846Z,102051.00
2023-05-20T04:41:37.904Z,102047.67
2023-05-20T04:46:46.271Z,102044.62
2023-05-20T04:51:55.736Z,102041.32
2023-05-20T04:57:03.729Z,102040.11
2023-05-20T05:02:11.786Z,102040.55
2023-05-20T05:07:19.824Z,102045.65
2023-05-20T05:12:27.755Z,102049.52
2023-05-20T05:17:35.863Z,102047.88
2023-05-20T05:22:43.866Z,102045.38
2023-05-20T05:27:51.862Z,102044.09
2023-05-20T05:32:59.951Z,102044.77
2023-05-20T05:38:08.102Z,102048.55
2023-05-20T05:43:16.475Z,102049.64
2023-05-20T05:48:24.841Z,102049.40
2023-05-20T05:53:33.019Z,102053.64
2023-05-20T05:58:41.203Z,102052.11
2023-05-20T06:03:49.746Z,102054.95
2023-05-20T06:08:58.181Z,102049.52
2023-05-20T06:14:06.299Z,102045.84
2023-05-20T06:19:14.657Z,102046.95
2023-05-20T06:24:24.485Z,102054.52
2023-05-20T06:29:33.306Z,102060.54
2023-05-20T06:34:41.440Z,102058.93
2023-05-20T06:39:54.089Z,102066.66
2023-05-20T06:45:02.602Z,102060.67
2023-05-20T06:50:12.273Z,102055.61
2023-05-20T06:55:20.495Z,102049.56
2023-05-20T07:00:28.548Z,102044.32
2023-05-20T07:05:36.697Z,102041.03
2023-05-20T07:10:44.927Z,102032.30
2023-05-20T07:15:53.275Z,102026.38
2023-05-20T07:21:01.356Z,102018.18
2023-05-20T07:26:09.468Z,102012.49
2023-05-20T07:31:17.972Z,102006.78
2023-05-20T07:36:27.554Z,102006.95
2023-05-20T07:41:37.813Z,102005.70
2023-05-20T07:46:46.086Z,102007.20
2023-05-20T07:51:54.027Z,102011.16
2023-05-20T07:57:02.284Z,102005.37
2023-05-20T08:02:11.079Z,101999.77
2023-05-20T08:07:19.176Z,101992.77
2023-05-20T08:12:27.258Z,101989.40
2023-05-20T08:17:35.501Z,101991.05
2023-05-20T08:22:43.499Z,101988.88
2023-05-20T08:27:51.501Z,101987.69
2023-05-20T08:33:00.135Z,101987.56
2023-05-20T08:38:08.201Z,101990.27
2023-05-20T08:43:16.378Z,101983.50
2023-05-20T08:48:27.913Z,101986.59
2023-05-20T08:53:35.881Z,101981.48
2023-05-20T08:58:44.397Z,101978.84
2023-05-20T09:03:53.169Z,101984.60
2023-05-20T09:09:03.063Z,101984.71
2023-05-20T09:14:11.388Z,101993.91
2023-05-20T09:19:20.440Z,101993.48
2023-05-20T09:24:29.419Z,101993.38
2023-05-20T09:29:37.414Z,101992.13
2023-05-20T09:34:47.782Z,101991.31
2023-05-20T09:40:01.220Z,101981.13
2023-05-20T09:45:10.612Z,101984.27
2023-05-20T09:50:20.989Z,101982.58
2023-05-20T09:55:29.434Z,101977.56
2023-05-20T10:00:37.708Z,101971.08
2023-05-20T10:05:56.131Z,101971.36
2023-05-20T10:11:14.898Z,101967.16
2023-05-20T10:16:33.110Z,101964.17
2023-05-20T10:21:41.117Z,101959.92
2023-05-20T10:26:59.194Z,101958.23
2023-05-20T10:32:07.805Z,101954.85
2023-05-20T10:37:24.273Z,101953.84
2023-05-20T10:42:32.454Z,101947.65
2023-05-20T10:47:55.743Z,101945.70
2023-05-20T10:53:15.697Z,101942.92
2023-05-20T10:58:37.608Z,101942.41
2023-05-20T11:03:47.339Z,101935.77
2023-05-20T11:08:55.932Z,101934.88
2023-05-20T11:14:04.080Z,101928.45
2023-05-20T11:19:15.800Z,101920.39
2023-05-20T11:24:28.898Z,101908.56
2023-05-20T11:29:36.958Z,101896.08
2023-05-20T11:34:44.980Z,101894.06
2023-05-20T11:40:09.558Z,101888.48
2023-05-20T11:45:17.785Z,101891.54
2023-05-20T11:50:27.280Z,101892.94
2023-05-20T11:55:36.139Z,101889.69
2023-05-20T12:05:57.684Z,101888.43
2023-05-20T12:11:05.686Z,101892.61
2023-05-20T12:16:13.766Z,101888.20
2023-05-20T12:21:21.854Z,101876.10
2023-05-20T12:26:31.422Z,101874.58
2023-05-20T12:31:39.500Z,101865.48
2023-05-20T12:36:48.551Z,101853.83
2023-05-20T12:41:56.504Z,101847.54
2023-05-20T12:47:13.415Z,101847.94
2023-05-20T12:52:23.015Z,101840.42
2023-05-20T12:57:31.388Z,101835.65
2023-05-20T13:02:40.301Z,101828.73
2023-05-20T13:07:49.105Z,101825.66
2023-05-20T13:12:57.464Z,101830.83
2023-05-20T13:18:07.140Z,101837.70
2023-05-20T13:23:15.338Z,101828.80
2023-05-20T13:28:23.382Z,101814.73
2023-05-20T13:33:31.791Z,101808.33
2023-05-20T13:38:40.242Z,101800.34
2023-05-20T13:43:48.224Z,101798.10
2023-05-20T13:48:56.266Z,101793.51
2023-05-20T13:54:04.399Z,101788.88
2023-05-20T13:59:12.470Z,101779.05
2023-05-20T14:04:20.555Z,101778.83
2023-05-20T14:09:28.568Z,101772.20
2023-05-20T14:14:36.743Z,101770.81
2023-05-20T14:19:44.999Z,101769.15
2023-05-20T14:24:53.042Z,101765.61
2023-05-20T14:30:01.196Z,101757.77
2023-05-20T14:35:11.184Z,101754.33
2023-05-20T14:40:19.313Z,101752.36
2023-05-20T14:45:27.347Z,101748.31
2023-05-20T14:50:35.740Z,101752.09
2023-05-20T14:55:44.216Z,101745.23
2023-05-20T15:00:53.757Z,101743.87
2023-05-20T15:06:02.449Z,101734.46
2023-05-20T15:11:10.487Z,101723.21
2023-05-20T15:16:19.498Z,101721.38
2023-05-20T15:21:34.880Z,101712.91
2023-05-20T15:26:43.167Z,101706.52
2023-05-20T15:31:51.732Z,101694.91
2023-05-20T15:36:59.710Z,101689.87
2023-05-20T15:42:07.947Z,101686.46
2023-05-20T15:47:15.990Z,101680.67
2023-05-20T15:52:24.079Z,101677.62
2023-05-20T15:57:32.130Z,101671.79
2023-05-20T16:02:41.546Z,101672.71
2023-05-20T16:07:51.091Z,101666.80
2023-05-20T16:12:59.106Z,101658.17
2023-05-20T16:18:09.213Z,101658.55
2023-05-20T16:23:17.581Z,101657.34
2023-05-20T16:28:25.895Z,101655.14
2023-05-20T16:33:33.870Z,101655.04
2023-05-20T16:38:41.920Z,101649.77
2023-05-20T16:43:50.016Z,101646.95
2023-05-20T16:48:58.290Z,101643.86
2023-05-20T16:54:06.671Z,101642.80
2023-05-20T16:59:16.982Z,101640.05
2023-05-20T17:04:25.301Z,101638.04
2023-05-20T17:09:33.326Z,101631.02
2023-05-20T17:14:41.360Z,101629.93
2023-05-20T17:19:49.434Z,101631.16
2023-05-20T17:24:57.578Z,101627.98
2023-05-20T17:30:06.277Z,101622.55
2023-05-20T17:35:14.263Z,101625.03
2023-05-20T17:40:22.535Z,101613.60
2023-05-20T17:45:30.772Z,101615.66
2023-05-20T17:50:38.867Z,101616.61
2023-05-20T17:55:47.770Z,101613.01
2023-05-20T18:00:55.825Z,101614.08
2023-05-20T18:06:05.742Z,101609.20
2023-05-20T18:11:13.787Z,101599.59
2023-05-20T18:16:21.861Z,101594.33
2023-05-20T18:21:29.875Z,101587.09
2023-05-20T18:26:38.607Z,101579.89
2023-05-20T18:31:46.714Z,101578.05
2023-05-20T18:36:55.048Z,101580.09
2023-05-20T18:42:03.051Z,101579.13
2023-05-20T18:47:11.192Z,101584.05
2023-05-20T18:52:19.497Z,101585.23
2023-05-20T18:57:27.540Z,101592.48
2023-05-20T19:02:35.576Z,101589.32
2023-05-20T19:07:43.776Z,101588.17
2023-05-20T19:12:51.842Z,101585.09
2023-05-20T19:17:59.917Z,101586.73
2023-05-20T19:23:07.919Z,101587.79
2023-05-20T19:28:16.027Z,101592.32
2023-05-20T19:33:24.103Z,101590.77
2023-05-20T19:38:32.147Z,101593.21
2023-05-20T19:43:40.192Z,101592.81
2023-05-20T19:48:48.218Z,101593.83
2023-05-20T19:53:56.246Z,101593.05
2023-05-20T19:59:07.218Z,101589.61
2023-05-20T20:04:17.217Z,101589.02
2023-05-20T20:09:25.261Z,101588.92
2023-05-20T20:14:33.831Z,101587.45
2023-05-20T20:19:42.354Z,101592.39
2023-05-20T20:24:51.024Z,101596.55
2023-05-20T20:29:59.003Z,101596.44
2023-05-20T20:35:08.165Z,101600.19
2023-05-20T20:40:16.590Z,101598.06
2023-05-20T20:45:24.697Z,101601.39
2023-05-20T20:50:33.976Z,101598.16
2023-05-20T20:55:43.204Z,101599.61
2023-05-20T21:00:53.231Z,101601.30
2023-05-20T21:06:02.649Z,101597.55
2023-05-20T21:11:19.556Z,101599.56
2023-05-20T21:16:27.563Z,101592.95
2023-05-20T21:21:36.442Z,101591.27
2023-05-20T21:26:44.489Z,101584.49
2023-05-20T21:32:10.085Z,101581.05
2023-05-20T21:37:18.116Z,101583.35
2023-05-20T21:42:26.421Z,101585.02
2023-05-20T21:47:34.404Z,101583.73
2023-05-20T21:52:42.476Z,101580.88
2023-05-20T21:57:50.532Z,101584.44
2023-05-20T22:02:58.628Z,101583.20
2023-05-20T22:08:07.675Z,101581.92
2023-05-20T22:13:15.735Z,101584.08
2023-05-20T22:18:24.446Z,101577.34
2023-05-20T22:23:32.496Z,101577.98
2023-05-20T22:28:40.490Z,101575.97
2023-05-20T22:33:48.482Z,101572.91
2023-05-20T22:38:56.437Z,101571.58
2023-05-20T22:44:05.721Z,101573.99
2023-05-20T22:49:14.657Z,101570.63
2023-05-20T22:54:22.734Z,101567.83
2023-05-20T22:59:31.962Z,101565.98
2023-05-20T23:04:41.538Z,101565.13
2023-05-20T23:09:49.618Z,101560.29
2023-05-20T23:14:57.635Z,101558.98
2023-05-20T23:20:11.042Z,101555.79
2023-05-20T23:25:19.496Z,101551.08
2023-05-20T23:30:27.685Z,101547.88
2023-05-20T23:35:36.008Z,101543.45
2023-05-20T23:40:44.227Z,101551.42
2023-05-20T23:45:53.248Z,101547.45
2023-05-20T23:51:01.381Z,101548.09
2023-05-20T23:56:10.198Z,101549.98
